Time,TemperatureF,DewpointF,PressureIn,WindDirection,WindDirectionDegrees,WindSpeedMPH,WindSpeedGustMPH,Humidity,HourlyPrecipIn,Conditions,Clouds,dailyrainin,SoftwareType,DateUTC
2013-07-04 07:49:00,61.0,60.1,30.12,North,0,0.0,0.0,97,0.00,,---,0.00,VWS V14.01,2013-07-04 05:49:00,
2013-07-04 07:56:00,61.2,60.3,30.12,North,0,0.0,0.0,97,0.00,,---,0.00,VWS V14.01,2013-07-04 05:56:00,
2013-07-04 08:00:00,61.2,60.3,30.12,North,0,0.0,0.0,97,0.00,,---,0.00,VWS V14.01,2013-07-04 06:00:00,
2013-07-04 08:02:00,61.2,60.3,30.12,North,0,0.0,0.0,97,0.00,,---,0.00,VWS V14.01,2013-07-04 06:02:00,
2013-07-04 08:03:00,61.2,60.3,30.12,North,0,0.0,0.0,97,0.00,,---,0.00,VWS V14.01,2013-07-04 06:03:00,
2013-07-04 08:06:00,61.0,60.1,30.12,North,0,0.0,0.0,97,0.00,,---,0.00,VWS V14.01,2013-07-04 06:06:00,
2013-07-04 08:08:00,61.0,60.1,30.12,North,0,0.0,0.0,97,0.00,,---,0.00,VWS V14.01,2013-07-04 06:08:00,
2013-07-04 08:10:00,61.0,60.1,30.12,North,0,0.0,0.0,97,0.00,,---,0.00,VWS V14.01,2013-07-04 06:10:00,
2013-07-04 08:11:00,61.0,60.1,30.12,North,0,0.0,0.0,97,0.00,,---,0.00,VWS V14.01,2013-07-04 06:11:00,
2013-07-04 08:12:00,61.0,60.1,30.12,North,0,0.0,0.0,97,0.00,,---,0.00,VWS V14.01,2013-07-04 06:12:00,
2013-07-04 08:14:00,61.0,60.1,30.12,North,0,0.0,0.0,97,0.00,,---,0.00,VWS V14.01,2013-07-04 06:14:00,
2013-07-04 08:16:00,61.0,60.1,30.12,North,0,0.0,0.0,97,0.00,,---,0.00,VWS V14.01,2013-07-04 06:16:00,
2013-07-04 08:19:00,61.0,60.1,30.12,North,0,0.0,0.0,97,0.00,,---,0.00,VWS V14.01,2013-07-04 06:19:00,
2013-07-04 08:20:00,61.3,60.8,30.15,North,0,0.0,0.0,98,0.00,,---,0.00,VWS V14.01,2013-07-04 06:20:00,
2013-07-04 08:21:00,61.3,60.8,30.15,North,0,0.0,0.0,98,0.00,,---,0.00,VWS V14.01,2013-07-04 06:21:00,
2013-07-04 08:22:00,61.3,60.8,30.15,North,0,0.0,0.0,98,0.00,,---,0.00,VWS V14.01,2013-07-04 06:22:00,
2013-07-04 08:26:00,61.5,61.0,30.15,North,0,0.0,0.0,98,0.00,,---,0.00,VWS V14.01,2013-07-04 06:26:00,
2013-07-04 08:28:00,61.3,60.8,30.15,North,0,0.0,0.0,98,0.00,,---,0.00,VWS V14.01,2013-07-04 06:28:00,
2013-07-04 08:29:00,61.3,60.8,30.15,North,0,0.0,0.0,98,0.00,,---,0.00,VWS V14.01,2013-07-04 06:29:00,
2013-07-04 08:30:00,61.3,60.8,30.15,North,0,0.0,0.0,98,0.00,,---,0.00,VWS V14.01,2013-07-04 06:30:00,
2013-07-04 08:33:00,61.3,60.8,30.15,North,0,0.0,0.0,98,0.00,,---,0.00,VWS V14.01,2013-07-04 06:33:00,
2013-07-04 08:34:00,61.3,60.8,30.15,North,0,0.0,0.0,98,0.00,,---,0.00,VWS V14.01,2013-07-04 06:34:00,
2013-07-04 08:35:00,61.5,61.0,30.15,North,0,0.0,0.0,98,0.00,,---,0.00,VWS V14.01,2013-07-04 06:35:00,
2013-07-04 08:38:00,61.7,61.1,30.15,North,0,0.0,0.0,98,0.00,,---,0.00,VWS V14.01,2013-07-04 06:38:00,
2013-07-04 08:40:00,61.7,61.1,30.15,North,0,0.0,0.0,98,0.00,,---,0.00,VWS V14.01,2013-07-04 06:40:00,
2013-07-04 08:42:00,61.7,61.1,30.15,North,0,0.0,0.0,98,0.00,,---,0.00,VWS V14.01,2013-07-04 06:42:00,
2013-07-04 08:45:00,61.7,61.1,30.15,North,0,0.0,0.0,98,0.00,,---,0.00,VWS V14.01,2013-07-04 06:45:00,
2013-07-04 08:49:00,62.1,61.5,30.15,North,0,0.0,0.0,98,0.00,,---,0.00,VWS V14.01,2013-07-04 06:49:00,
2013-07-04 08:50:00,61.9,61.3,30.15,North,0,0.0,0.0,98,0.00,,---,0.00,VWS V14.01,2013-07-04 06:50:00,
2013-07-04 08:52:00,61.7,61.1,30.15,North,0,0.0,0.0,98,0.00,,---,0.00,VWS V14.01,2013-07-04 06:52:00,
2013-07-04 08:54:00,61.9,61.3,30.15,North,0,0.0,0.0,98,0.00,,---,0.00,VWS V14.01,2013-07-04 06:54:00,
2013-07-04 08:57:00,61.9,61.3,30.15,North,0,0.0,0.0,98,0.00,,---,0.00,VWS V14.01,2013-07-04 06:57:00,
2013-07-04 08:59:00,61.9,61.3,30.15,North,0,0.0,0.0,98,0.00,,---,0.00,VWS V14.01,2013-07-04 06:59:00,
2013-07-04 09:00:00,61.7,61.1,30.15,North,0,0.0,0.0,98,0.00,,---,0.00,VWS V14.01,2013-07-04 07:00:00,
2013-07-04 09:02:00,61.7,61.1,30.15,North,0,0.0,0.0,98,0.00,,---,0.00,VWS V14.01,2013-07-04 07:02:00,
2013-07-04 09:03:00,61.7,61.1,30.15,North,0,0.0,0.0,98,0.00,,---,0.00,VWS V14.01,2013-07-04 07:03:00,
2013-07-04 09:07:00,61.7,61.1,30.15,North,0,0.0,0.0,98,0.00,,---,0.00,VWS V14.01,2013-07-04 07:07:00,
2013-07-04 09:08:00,61.7,61.1,30.15,North,0,0.0,0.0,98,0.00,,---,0.00,VWS V14.01,2013-07-04 07:08:00,
2013-07-04 09:09:00,61.7,61.1,30.15,North,0,0.0,0.0,98,0.00,,---,0.00,VWS V14.01,2013-07-04 07:09:00,
2013-07-04 09:12:00,61.9,61.3,30.15,North,0,0.0,0.0,98,0.00,,---,0.00,VWS V14.01,2013-07-04 07:12:00,
2013-07-04 09:15:00,61.9,61.3,30.15,North,0,0.0,0.0,98,0.00,,---,0.00,VWS V14.01,2013-07-04 07:15:00,
2013-07-04 09:17:00,61.9,61.3,30.15,North,0,0.0,0.0,98,0.00,,---,0.00,VWS V14.01,2013-07-04 07:17:00,
2013-07-04 09:18:00,61.7,61.1,30.15,North,0,0.0,0.0,98,0.00,,---,0.00,VWS V14.01,2013-07-04 07:18:00,
2013-07-04 09:21:00,61.5,61.0,30.18,North,0,0.0,0.0,98,0.00,,---,0.00,VWS V14.01,2013-07-04 07:21:00,
2013-07-04 09:22:00,61.5,61.0,30.18,North,0,0.0,0.0,98,0.00,,---,0.00,VWS V14.01,2013-07-04 07:22:00,
2013-07-04 09:23:00,61.5,61.0,30.18,North,0,0.0,0.0,98,0.00,,---,0.00,VWS V14.01,2013-07-04 07:23:00,
2013-07-04 09:25:00,61.7,61.1,30.18,North,0,0.0,0.0,98,0.00,,---,0.00,VWS V14.01,2013-07-04 07:25:00,
2013-07-04 09:26:00,61.7,61.1,30.18,North,0,0.0,0.0,98,0.00,,---,0.00,VWS V14.01,2013-07-04 07:26:00,
2013-07-04 09:28:00,61.5,61.0,30.18,North,0,0.0,0.0,98,0.00,,---,0.00,VWS V14.01,2013-07-04 07:28:00,
2013-07-04 09:31:00,61.9,61.3,30.18,North,0,0.0,0.0,98,0.00,,---,0.00,VWS V14.01,2013-07-04 07:31:00,
2013-07-04 09:33:00,61.9,61.3,30.18,North,0,0.0,0.0,98,0.00,,---,0.00,VWS V14.01,2013-07-04 07:33:00,
2013-07-04 09:35:00,61.7,61.1,30.15,North,0,0.0,0.0,98,0.00,,---,0.00,VWS V14.01,2013-07-04 07:35:00,
2013-07-04 09:37:00,61.5,61.0,30.15,North,0,0.0,0.0,98,0.00,,---,0.00,VWS V14.01,2013-07-04 07:37:00,
2013-07-04 09:38:00,61.5,61.0,30.15,North,0,0.0,0.0,98,0.00,,---,0.00,VWS V14.01,2013-07-04 07:38:00,
2013-07-04 09:39:00,61.7,61.1,30.15,North,0,0.0,0.0,98,0.00,,---,0.00,VWS V14.01,2013-07-04 07:39:00,
2013-07-04 09:40:00,61.7,61.1,30.15,North,0,0.0,0.0,98,0.00,,---,0.00,VWS V14.01,2013-07-04 07:40:00,
2013-07-04 09:44:00,61.5,61.0,30.15,North,0,0.0,0.0,98,0.00,,---,0.00,VWS V14.01,2013-07-04 07:44:00,
2013-07-04 09:45:00,61.5,61.0,30.15,North,0,0.0,0.0,98,0.00,,---,0.00,VWS V14.01,2013-07-04 07:45:00,
2013-07-04 09:47:00,61.5,61.0,30.15,North,0,0.0,0.0,98,0.00,,---,0.00,VWS V14.01,2013-07-04 07:47:00,
2013-07-04 09:49:00,61.5,61.0,30.15,North,0,0.0,0.0,98,0.00,,---,0.00,VWS V14.01,2013-07-04 07:49:00,
2013-07-04 09:52:00,61.5,61.0,30.18,North,0,0.0,0.0,98,0.00,,---,0.00,VWS V14.01,2013-07-04 07:52:00,
2013-07-04 09:53:00,61.5,61.0,30.18,North,0,0.0,0.0,98,0.00,,---,0.00,VWS V14.01,2013-07-04 07:53:00,
2013-07-04 09:54:00,61.5,61.0,30.18,North,0,0.0,0.0,98,0.00,,---,0.00,VWS V14.01,2013-07-04 07:54:00,
2013-07-04 09:56:00,61.5,61.0,30.18,North,0,0.0,0.0,98,0.00,,---,0.00,VWS V14.01,2013-07-04 07:56:00,
2013-07-04 09:57:00,61.5,61.0,30.18,North,0,0.0,0.0,98,0.00,,---,0.00,VWS V14.01,2013-07-04 07:57:00,
2013-07-04 10:01:00,61.5,61.0,30.18,North,0,0.0,0.0,98,0.00,,---,0.00,VWS V14.01,2013-07-04 08:01:00,
2013-07-04 10:03:00,61.5,61.0,30.18,North,0,0.0,0.0,98,0.00,,---,0.00,VWS V14.01,2013-07-04 08:03:00,
2013-07-04 10:04:00,61.5,61.0,30.18,North,0,0.0,0.0,98,0.00,,---,0.00,VWS V14.01,2013-07-04 08:04:00,
2013-07-04 10:08:00,61.7,61.1,30.18,North,0,0.0,0.0,98,0.00,,---,0.00,VWS V14.01,2013-07-04 08:08:00,
2013-07-04 10:09:00,61.7,61.1,30.18,North,0,0.0,0.0,98,0.00,,---,0.00,VWS V14.01,2013-07-04 08:09:00,
2013-07-04 10:12:00,61.7,61.1,30.18,North,0,0.0,0.0,98,0.00,,---,0.00,VWS V14.01,2013-07-04 08:12:00,
2013-07-04 10:13:00,61.7,61.1,30.18,North,0,0.0,0.0,98,0.00,,---,0.00,VWS V14.01,2013-07-04 08:13:00,
2013-07-04 10:14:00,61.7,61.1,30.18,North,0,0.0,0.0,98,0.00,,---,0.00,VWS V14.01,2013-07-04 08:14:00,
2013-07-04 10:17:00,61.7,61.1,30.18,North,0,0.0,0.0,98,0.00,,---,0.00,VWS V14.01,2013-07-04 08:17:00,
2013-07-04 10:18:00,61.7,61.1,30.18,North,0,0.0,0.0,98,0.00,,---,0.00,VWS V14.01,2013-07-04 08:18:00,
2013-07-04 10:19:00,61.7,61.1,30.18,North,0,0.0,0.0,98,0.00,,---,0.00,VWS V14.01,2013-07-04 08:19:00,
2013-07-04 10:23:00,61.5,61.0,30.18,North,0,0.0,0.0,98,0.00,,---,0.00,VWS V14.01,2013-07-04 08:23:00,
2013-07-04 10:24:00,61.7,61.1,30.18,North,0,0.0,0.0,98,0.00,,---,0.00,VWS V14.01,2013-07-04 08:24:00,
2013-07-04 10:25:00,61.7,61.1,30.18,North,0,0.0,0.0,98,0.00,,---,0.00,VWS V14.01,2013-07-04 08:25:00,
2013-07-04 10:26:00,61.5,61.0,30.18,North,0,0.0,0.0,98,0.00,,---,0.00,VWS V14.01,2013-07-04 08:26:00,
2013-07-04 10:29:00,61.7,61.1,30.18,North,0,0.0,0.0,98,0.00,,---,0.00,VWS V14.01,2013-07-04 08:29:00,
2013-07-04 10:31:00,61.7,61.1,30.18,North,0,0.0,0.0,98,0.00,,---,0.00,VWS V14.01,2013-07-04 08:31:00,
2013-07-04 10:33:00,61.7,61.1,30.18,North,0,0.0,0.0,98,0.00,,---,0.00,VWS V14.01,2013-07-04 08:33:00,
2013-07-04 10:34:00,61.7,61.1,30.18,North,0,0.0,0.0,98,0.00,,---,0.00,VWS V14.01,2013-07-04 08:34:00,
2013-07-04 10:36:00,61.7,61.1,30.15,North,0,0.0,0.0,98,0.00,,---,0.00,VWS V14.01,2013-07-04 08:36:00,
2013-07-04 10:37:00,61.7,61.1,30.15,North,0,0.0,0.0,98,0.00,,---,0.00,VWS V14.01,2013-07-04 08:37:00,
2013-07-04 10:38:00,61.7,61.1,30.15,North,0,0.0,0.0,98,0.00,,---,0.00,VWS V14.01,2013-07-04 08:38:00,
2013-07-04 10:39:00,61.7,61.1,30.15,North,0,0.0,0.0,98,0.00,,---,0.00,VWS V14.01,2013-07-04 08:39:00,
2013-07-04 10:42:00,61.7,61.1,30.15,North,0,0.0,0.0,98,0.00,,---,0.00,VWS V14.01,2013-07-04 08:42:00,
2013-07-04 10:43:00,61.7,61.1,30.15,North,0,0.0,0.0,98,0.00,,---,0.00,VWS V14.01,2013-07-04 08:43:00,
2013-07-04 10:45:00,63.0,62.1,30.15,North,0,0.0,0.0,97,0.00,,---,0.00,VWS V14.01,2013-07-04 08:45:00,
2013-07-04 10:47:00,62.6,61.7,30.15,North,0,0.0,0.0,97,0.00,,---,0.00,VWS V14.01,2013-07-04 08:47:00,
2013-07-04 10:48:00,62.4,61.6,30.15,North,0,0.0,0.0,97,0.00,,---,0.00,VWS V14.01,2013-07-04 08:48:00,
2013-07-04 10:51:00,62.4,61.6,30.18,North,0,0.0,0.0,97,0.00,,---,0.00,VWS V14.01,2013-07-04 08:51:00,
2013-07-04 10:52:00,62.4,61.6,30.18,North,0,0.0,0.0,97,0.00,,---,0.00,VWS V14.01,2013-07-04 08:52:00,
2013-07-04 10:53:00,62.4,61.6,30.18,North,0,0.0,0.0,97,0.00,,---,0.00,VWS V14.01,2013-07-04 08:53:00,
2013-07-04 10:57:00,62.4,61.6,30.18,North,0,0.0,0.0,97,0.00,,---,0.00,VWS V14.01,2013-07-04 08:57:00,
2013-07-04 10:58:00,62.4,61.3,30.18,North,0,0.0,0.0,96,0.00,,---,0.00,VWS V14.01,2013-07-04 08:58:00,
2013-07-04 11:00:00,62.2,61.1,30.18,North,0,0.0,0.0,96,0.00,,---,0.00,VWS V14.01,2013-07-04 09:00:00,
2013-07-04 11:02:00,62.4,61.3,30.18,North,0,0.0,0.0,96,0.00,,---,0.00,VWS V14.01,2013-07-04 09:02:00,
2013-07-04 11:04:00,62.4,61.3,30.18,North,0,0.0,0.0,96,0.00,,---,0.00,VWS V14.01,2013-07-04 09:04:00,
2013-07-04 11:05:00,62.4,61.3,30.18,North,0,0.0,0.0,96,0.00,,---,0.00,VWS V14.01,2013-07-04 09:05:00,
2013-07-04 11:09:00,62.1,60.9,30.18,North,0,0.0,0.0,96,0.00,,---,0.00,VWS V14.01,2013-07-04 09:09:00,
2013-07-04 11:10:00,61.9,60.7,30.18,North,0,0.0,0.0,96,0.00,,---,0.00,VWS V14.01,2013-07-04 09:10:00,
2013-07-04 11:11:00,61.9,60.7,30.18,North,0,0.0,0.0,96,0.00,,---,0.00,VWS V14.01,2013-07-04 09:11:00,
2013-07-04 11:12:00,61.7,60.3,30.18,North,0,0.0,0.0,95,0.00,,---,0.00,VWS V14.01,2013-07-04 09:12:00,
2013-07-04 11:13:00,61.3,59.9,30.18,North,0,0.0,0.0,95,0.00,,---,0.00,VWS V14.01,2013-07-04 09:13:00,
2013-07-04 11:15:00,60.8,59.1,30.18,North,0,0.0,0.0,94,0.00,,---,0.00,VWS V14.01,2013-07-04 09:15:00,
2013-07-04 11:17:00,60.6,58.6,30.18,North,0,0.0,0.0,93,0.00,,---,0.00,VWS V14.01,2013-07-04 09:17:00,
2013-07-04 11:18:00,60.6,58.6,30.18,North,0,0.0,0.0,93,0.00,,---,0.00,VWS V14.01,2013-07-04 09:18:00,
2013-07-04 11:20:00,60.6,58.6,30.18,North,0,0.0,0.0,93,0.00,,---,0.00,VWS V14.01,2013-07-04 09:20:00,
2013-07-04 11:23:00,60.8,58.5,30.18,North,0,0.0,0.0,92,0.00,,---,0.00,VWS V14.01,2013-07-04 09:23:00,
2013-07-04 11:24:00,60.8,58.5,30.18,North,0,0.0,0.0,92,0.00,,---,0.00,VWS V14.01,2013-07-04 09:24:00,
2013-07-04 11:26:00,60.8,58.5,30.18,North,0,0.0,0.0,92,0.00,,---,0.00,VWS V14.01,2013-07-04 09:26:00,
2013-07-04 11:27:00,60.8,58.5,30.18,North,0,0.0,0.0,92,0.00,,---,0.00,VWS V14.01,2013-07-04 09:27:00,
2013-07-04 11:28:00,60.8,58.5,30.18,North,0,0.0,0.0,92,0.00,,---,0.00,VWS V14.01,2013-07-04 09:28:00,
2013-07-04 11:30:00,60.6,58.3,30.18,North,0,0.0,0.0,92,0.00,,---,0.00,VWS V14.01,2013-07-04 09:30:00,
2013-07-04 11:33:00,60.4,58.1,30.18,North,0,0.0,0.0,92,0.00,,---,0.00,VWS V14.01,2013-07-04 09:33:00,
2013-07-04 11:34:00,59.9,57.0,30.18,North,0,0.0,0.0,90,0.00,,---,0.00,VWS V14.01,2013-07-04 09:34:00,
2013-07-04 11:37:00,59.5,55.7,30.15,North,0,0.0,0.0,87,0.00,,---,0.00,VWS V14.01,2013-07-04 09:37:00,
2013-07-04 11:39:00,59.2,54.0,30.15,North,0,0.0,0.0,83,0.00,,---,0.00,VWS V14.01,2013-07-04 09:39:00,
2013-07-04 11:41:00,59.2,54.4,30.15,North,0,0.0,0.0,84,0.00,,---,0.00,VWS V14.01,2013-07-04 09:41:00,
2013-07-04 11:43:00,59.4,54.5,30.15,North,0,0.0,0.0,84,0.00,,---,0.00,VWS V14.01,2013-07-04 09:43:00,
2013-07-04 11:44:00,59.4,54.9,30.15,North,0,0.0,0.0,85,0.00,,---,0.00,VWS V14.01,2013-07-04 09:44:00,
2013-07-04 11:47:00,59.4,54.2,30.15,North,0,0.0,0.0,83,0.00,,---,0.00,VWS V14.01,2013-07-04 09:47:00,
2013-07-04 11:50:00,59.4,54.2,30.15,North,0,0.0,0.0,83,0.00,,---,0.00,VWS V14.01,2013-07-04 09:50:00,
2013-07-04 11:51:00,59.4,54.2,30.15,North,0,0.0,0.0,83,0.00,,---,0.00,VWS V14.01,2013-07-04 09:51:00,
2013-07-04 11:53:00,60.3,54.1,30.15,North,0,0.0,0.0,80,0.00,,---,0.00,VWS V14.01,2013-07-04 09:53:00,
2013-07-04 11:54:00,60.4,54.6,30.15,North,0,0.0,0.0,81,0.00,,---,0.00,VWS V14.01,2013-07-04 09:54:00,
2013-07-04 11:56:00,60.6,54.4,30.15,North,0,0.0,0.0,80,0.00,,---,0.00,VWS V14.01,2013-07-04 09:56:00,
2013-07-04 11:58:00,60.4,54.2,30.15,North,0,0.0,0.0,80,0.00,,---,0.00,VWS V14.01,2013-07-04 09:58:00,
2013-07-04 11:59:00,60.4,52.5,30.15,North,0,0.0,0.0,75,0.00,,---,0.00,VWS V14.01,2013-07-04 09:59:00,
2013-07-04 12:00:00,60.1,51.0,30.15,North,0,0.0,0.0,72,0.00,,---,0.00,VWS V14.01,2013-07-04 10:00:00,
2013-07-04 12:01:00,60.3,51.2,30.15,North,0,0.0,0.0,72,0.00,,---,0.00,VWS V14.01,2013-07-04 10:01:00,
2013-07-04 12:03:00,60.4,50.6,30.15,North,0,0.0,0.0,70,0.00,,---,0.00,VWS V14.01,2013-07-04 10:03:00,
2013-07-04 12:06:00,60.3,49.7,30.15,North,0,0.0,0.0,68,0.00,,---,0.00,VWS V14.01,2013-07-04 10:06:00,
2013-07-04 12:07:00,59.9,48.9,30.15,North,0,0.0,0.0,67,0.00,,---,0.00,VWS V14.01,2013-07-04 10:07:00,
2013-07-04 12:09:00,60.1,48.3,30.15,North,0,0.0,0.0,65,0.00,,---,0.00,VWS V14.01,2013-07-04 10:09:00,
2013-07-04 12:11:00,60.1,47.9,30.15,North,0,0.0,0.0,64,0.00,,---,0.00,VWS V14.01,2013-07-04 10:11:00,
2013-07-04 12:13:00,61.0,49.2,30.15,North,0,0.0,0.0,65,0.00,,---,0.00,VWS V14.01,2013-07-04 10:13:00,
2013-07-04 12:15:00,60.6,47.1,30.15,North,0,0.0,0.0,61,0.00,,---,0.00,VWS V14.01,2013-07-04 10:15:00,
2013-07-04 12:17:00,60.8,46.4,30.15,North,0,0.0,0.0,59,0.00,,---,0.00,VWS V14.01,2013-07-04 10:17:00,
2013-07-04 12:19:00,60.8,46.4,30.15,North,0,0.0,0.0,59,0.00,,---,0.00,VWS V14.01,2013-07-04 10:19:00,
2013-07-04 12:21:00,61.0,46.1,30.15,North,0,0.0,0.0,58,0.00,,---,0.00,VWS V14.01,2013-07-04 10:21:00,
2013-07-04 12:24:00,60.6,44.4,30.15,North,0,0.0,0.0,55,0.00,,---,0.00,VWS V14.01,2013-07-04 10:24:00,
2013-07-04 12:25:00,60.4,44.2,30.15,North,0,0.0,0.0,55,0.00,,---,0.00,VWS V14.01,2013-07-04 10:25:00,
2013-07-04 12:27:00,60.6,44.8,30.15,North,0,0.0,0.0,56,0.00,,---,0.00,VWS V14.01,2013-07-04 10:27:00,
2013-07-04 12:29:00,60.4,44.2,30.15,North,0,0.0,0.0,55,0.00,,---,0.00,VWS V14.01,2013-07-04 10:29:00,
2013-07-04 12:31:00,59.7,43.5,30.15,North,0,0.0,0.0,55,0.00,,---,0.00,VWS V14.01,2013-07-04 10:31:00,
2013-07-04 12:32:00,60.1,44.3,30.15,North,0,0.0,0.0,56,0.00,,---,0.00,VWS V14.01,2013-07-04 10:32:00,
2013-07-04 12:33:00,60.3,44.5,30.15,North,0,0.0,0.0,56,0.00,,---,0.00,VWS V14.01,2013-07-04 10:33:00,
2013-07-04 12:35:00,60.4,43.7,30.15,North,0,0.0,0.0,54,0.00,,---,0.00,VWS V14.01,2013-07-04 10:35:00,
2013-07-04 12:36:00,60.4,43.2,30.15,North,0,0.0,0.0,53,0.00,,---,0.00,VWS V14.01,2013-07-04 10:36:00,
2013-07-04 12:38:00,60.4,42.2,30.15,North,0,0.0,0.0,51,0.00,,---,0.00,VWS V14.01,2013-07-04 10:38:00,
2013-07-04 12:39:00,60.4,42.2,30.15,North,0,0.0,0.0,51,0.00,,---,0.00,VWS V14.01,2013-07-04 10:39:00,
2013-07-04 12:40:00,60.4,41.7,30.15,North,0,0.0,0.0,50,0.00,,---,0.00,VWS V14.01,2013-07-04 10:40:00,
2013-07-04 12:41:00,60.3,41.6,30.15,North,0,0.0,0.0,50,0.00,,---,0.00,VWS V14.01,2013-07-04 10:41:00,
2013-07-04 12:44:00,60.3,41.0,30.15,North,0,0.0,0.0,49,0.00,,---,0.00,VWS V14.01,2013-07-04 10:44:00,
2013-07-04 12:45:00,60.4,41.7,30.15,North,0,0.0,0.0,50,0.00,,---,0.00,VWS V14.01,2013-07-04 10:45:00,
2013-07-04 12:46:00,60.6,42.4,30.15,North,0,0.0,0.0,51,0.00,,---,0.00,VWS V14.01,2013-07-04 10:46:00,
2013-07-04 12:50:00,60.8,41.0,30.12,North,0,0.0,0.0,48,0.00,,---,0.00,VWS V14.01,2013-07-04 10:50:00,
2013-07-04 12:54:00,60.3,40.0,30.12,North,0,0.0,0.0,47,0.00,,---,0.00,VWS V14.01,2013-07-04 10:54:00,
2013-07-04 12:56:00,61.0,40.6,30.12,North,0,0.0,0.0,47,0.00,,---,0.00,VWS V14.01,2013-07-04 10:56:00,
2013-07-04 12:57:00,61.2,41.3,30.12,North,0,0.0,0.0,48,0.00,,---,0.00,VWS V14.01,2013-07-04 10:57:00,
2013-07-04 12:58:00,61.2,41.3,30.12,North,0,0.0,0.0,48,0.00,,---,0.00,VWS V14.01,2013-07-04 10:58:00,
2013-07-04 12:59:00,61.5,42.2,30.12,North,0,0.0,0.0,49,0.00,,---,0.00,VWS V14.01,2013-07-04 10:59:00,
2013-07-04 13:03:00,61.3,39.8,30.12,North,0,0.0,0.0,45,0.00,,---,0.00,VWS V14.01,2013-07-04 11:03:00,
2013-07-04 13:04:00,61.0,40.1,30.12,North,0,0.0,0.0,46,0.00,,---,0.00,VWS V14.01,2013-07-04 11:04:00,
2013-07-04 13:05:00,60.8,39.9,30.12,North,0,0.0,0.0,46,0.00,,---,0.00,VWS V14.01,2013-07-04 11:05:00,
2013-07-04 13:07:00,60.4,40.1,30.12,North,0,0.0,0.0,47,0.00,,---,0.00,VWS V14.01,2013-07-04 11:07:00,
2013-07-04 13:10:00,59.7,39.5,30.12,North,0,0.0,0.0,47,0.00,,---,0.00,VWS V14.01,2013-07-04 11:10:00,
2013-07-04 13:13:00,59.5,39.3,30.12,North,0,0.0,0.0,47,0.00,,---,0.00,VWS V14.01,2013-07-04 11:13:00,
2013-07-04 13:15:00,59.4,40.2,30.12,North,0,0.0,0.0,49,0.00,,---,0.00,VWS V14.01,2013-07-04 11:15:00,
2013-07-04 13:20:00,59.0,39.4,30.12,North,0,0.0,0.0,48,0.00,,---,0.00,VWS V14.01,2013-07-04 11:20:00,
2013-07-04 13:21:00,59.0,38.8,30.12,North,0,0.0,0.0,47,0.00,,---,0.00,VWS V14.01,2013-07-04 11:21:00,
2013-07-04 13:23:00,59.0,38.8,30.12,North,0,0.0,0.0,47,0.00,,---,0.00,VWS V14.01,2013-07-04 11:23:00,
2013-07-04 13:24:00,58.8,38.7,30.12,North,0,0.0,0.0,47,0.00,,---,0.00,VWS V14.01,2013-07-04 11:24:00,
2013-07-04 13:25:00,59.0,38.8,30.12,North,0,0.0,0.0,47,0.00,,---,0.00,VWS V14.01,2013-07-04 11:25:00,
2013-07-04 13:27:00,58.8,39.7,30.12,North,0,0.0,0.0,49,0.00,,---,0.00,VWS V14.01,2013-07-04 11:27:00,
2013-07-04 13:30:00,58.6,39.5,30.12,North,0,0.0,0.0,49,0.00,,---,0.00,VWS V14.01,2013-07-04 11:30:00,
2013-07-04 13:32:00,58.6,40.1,30.12,North,0,0.0,0.0,50,0.00,,---,0.00,VWS V14.01,2013-07-04 11:32:00,
2013-07-04 13:33:00,58.6,40.1,30.12,North,0,0.0,0.0,50,0.00,,---,0.00,VWS V14.01,2013-07-04 11:33:00,
2013-07-04 13:37:00,58.6,40.6,30.12,North,0,0.0,0.0,51,0.00,,---,0.00,VWS V14.01,2013-07-04 11:37:00,
2013-07-04 13:38:00,58.5,40.4,30.12,North,0,0.0,0.0,51,0.00,,---,0.00,VWS V14.01,2013-07-04 11:38:00,
2013-07-04 13:41:00,58.5,40.9,30.12,North,0,0.0,0.0,52,0.00,,---,0.00,VWS V14.01,2013-07-04 11:41:00,
2013-07-04 13:42:00,58.5,41.4,30.12,North,0,0.0,0.0,53,0.00,,---,0.00,VWS V14.01,2013-07-04 11:42:00,
2013-07-04 13:45:00,58.5,41.9,30.12,North,0,0.0,0.0,54,0.00,,---,0.00,VWS V14.01,2013-07-04 11:45:00,
2013-07-04 13:46:00,58.5,41.9,30.12,North,0,0.0,0.0,54,0.00,,---,0.00,VWS V14.01,2013-07-04 11:46:00,
2013-07-04 13:50:00,58.5,40.9,30.12,North,0,0.0,0.0,52,0.00,,---,0.00,VWS V14.01,2013-07-04 11:50:00,
2013-07-04 13:51:00,58.3,40.2,30.09,North,0,0.0,0.0,51,0.00,,---,0.00,VWS V14.01,2013-07-04 11:51:00,
2013-07-04 13:52:00,58.5,40.9,30.09,North,0,0.0,0.0,52,0.00,,---,0.00,VWS V14.01,2013-07-04 11:52:00,
2013-07-04 13:55:00,58.5,41.4,30.09,North,0,0.0,0.0,53,0.00,,---,0.00,VWS V14.01,2013-07-04 11:55:00,
2013-07-04 13:57:00,58.3,40.8,30.09,North,0,0.0,0.0,52,0.00,,---,0.00,VWS V14.01,2013-07-04 11:57:00,
2013-07-04 13:58:00,58.1,40.6,30.09,North,0,0.0,0.0,52,0.00,,---,0.00,VWS V14.01,2013-07-04 11:58:00,
2013-07-04 14:02:00,58.3,41.7,30.09,North,0,0.0,0.0,54,0.00,,---,0.00,VWS V14.01,2013-07-04 12:02:00,
2013-07-04 14:03:00,58.1,41.1,30.09,North,0,0.0,0.0,53,0.00,,---,0.00,VWS V14.01,2013-07-04 12:03:00,
2013-07-04 14:04:00,58.3,41.2,30.09,North,0,0.0,0.0,53,0.00,,---,0.00,VWS V14.01,2013-07-04 12:04:00,
2013-07-04 14:05:00,58.1,40.1,30.09,North,0,0.0,0.0,51,0.00,,---,0.00,VWS V14.01,2013-07-04 12:05:00,
2013-07-04 14:09:00,58.5,39.4,30.09,North,0,0.0,0.0,49,0.00,,---,0.00,VWS V14.01,2013-07-04 12:09:00,
2013-07-04 14:10:00,58.5,39.4,30.09,North,0,0.0,0.0,49,0.00,,---,0.00,VWS V14.01,2013-07-04 12:10:00,
2013-07-04 14:12:00,58.5,39.9,30.09,North,0,0.0,0.0,50,0.00,,---,0.00,VWS V14.01,2013-07-04 12:12:00,
2013-07-04 14:14:00,58.5,39.9,30.09,North,0,0.0,0.0,50,0.00,,---,0.00,VWS V14.01,2013-07-04 12:14:00,
2013-07-04 14:16:00,58.5,39.4,30.09,North,0,0.0,0.0,49,0.00,,---,0.00,VWS V14.01,2013-07-04 12:16:00,
2013-07-04 14:17:00,58.5,39.4,30.09,North,0,0.0,0.0,49,0.00,,---,0.00,VWS V14.01,2013-07-04 12:17:00,
2013-07-04 14:19:00,58.5,39.4,30.09,North,0,0.0,0.0,49,0.00,,---,0.00,VWS V14.01,2013-07-04 12:19:00,
2013-07-04 14:20:00,58.5,39.4,30.09,North,0,0.0,0.0,49,0.00,,---,0.00,VWS V14.01,2013-07-04 12:20:00,
2013-07-04 14:21:00,58.5,39.4,30.09,North,0,0.0,0.0,49,0.00,,---,0.00,VWS V14.01,2013-07-04 12:21:00,
2013-07-04 14:25:00,58.5,39.4,30.09,North,0,0.0,0.0,49,0.00,,---,0.00,VWS V14.01,2013-07-04 12:25:00,
2013-07-04 14:26:00,58.5,39.4,30.09,North,0,0.0,0.0,49,0.00,,---,0.00,VWS V14.01,2013-07-04 12:26:00,
2013-07-04 14:28:00,58.5,39.4,30.09,North,0,0.0,0.0,49,0.00,,---,0.00,VWS V14.01,2013-07-04 12:28:00,
2013-07-04 14:30:00,58.5,39.4,30.09,North,0,0.0,0.0,49,0.00,,---,0.00,VWS V14.01,2013-07-04 12:30:00,
2013-07-04 14:31:00,58.5,39.4,30.09,North,0,0.0,0.0,49,0.00,,---,0.00,VWS V14.01,2013-07-04 12:31:00,
2013-07-04 14:33:00,58.5,39.4,30.09,North,0,0.0,0.0,49,0.00,,---,0.00,VWS V14.01,2013-07-04 12:33:00,
2013-07-04 14:35:00,58.5,39.4,30.06,North,0,0.0,0.0,49,0.00,,---,0.00,VWS V14.01,2013-07-04 12:35:00,
2013-07-04 14:37:00,58.5,39.4,30.06,North,0,0.0,0.0,49,0.00,,---,0.00,VWS V14.01,2013-07-04 12:37:00,
2013-07-04 14:39:00,58.3,39.7,30.06,North,0,0.0,0.0,50,0.00,,---,0.00,VWS V14.01,2013-07-04 12:39:00,
2013-07-04 14:41:00,58.5,40.4,30.06,North,0,0.0,0.0,51,0.00,,---,0.00,VWS V14.01,2013-07-04 12:41:00,
2013-07-04 14:43:00,58.5,40.9,30.06,North,0,0.0,0.0,52,0.00,,---,0.00,VWS V14.01,2013-07-04 12:43:00,
2013-07-04 14:45:00,58.5,41.4,30.06,North,0,0.0,0.0,53,0.00,,---,0.00,VWS V14.01,2013-07-04 12:45:00,
2013-07-04 14:46:00,58.5,41.9,30.06,North,0,0.0,0.0,54,0.00,,---,0.00,VWS V14.01,2013-07-04 12:46:00,
2013-07-04 14:49:00,58.3,41.7,30.06,North,0,0.0,0.0,54,0.00,,---,0.00,VWS V14.01,2013-07-04 12:49:00,
2013-07-04 14:53:00,58.3,41.7,30.06,North,0,0.0,0.0,54,0.00,,---,0.00,VWS V14.01,2013-07-04 12:53:00,
2013-07-04 14:54:00,58.1,42.0,30.06,North,0,0.0,0.0,55,0.00,,---,0.00,VWS V14.01,2013-07-04 12:54:00,
2013-07-04 14:58:00,58.1,41.6,30.06,North,0,0.0,0.0,54,0.00,,---,0.00,VWS V14.01,2013-07-04 12:58:00,
2013-07-04 14:59:00,58.1,41.6,30.06,North,0,0.0,0.0,54,0.00,,---,0.00,VWS V14.01,2013-07-04 12:59:00,
2013-07-04 15:00:00,58.1,41.6,30.06,North,0,0.0,0.0,54,0.00,,---,0.00,VWS V14.01,2013-07-04 13:00:00,
2013-07-04 15:01:00,58.1,42.0,30.06,North,0,0.0,0.0,55,0.00,,---,0.00,VWS V14.01,2013-07-04 13:01:00,
2013-07-04 15:02:00,58.1,42.5,30.06,North,0,0.0,0.0,56,0.00,,---,0.00,VWS V14.01,2013-07-04 13:02:00,
2013-07-04 15:03:00,58.1,42.0,30.06,North,0,0.0,0.0,55,0.00,,---,0.00,VWS V14.01,2013-07-04 13:03:00,
2013-07-04 15:07:00,58.1,41.6,30.06,North,0,0.0,0.0,54,0.00,,---,0.00,VWS V14.01,2013-07-04 13:07:00,
2013-07-04 15:08:00,58.1,41.1,30.06,North,0,0.0,0.0,53,0.00,,---,0.00,VWS V14.01,2013-07-04 13:08:00,
2013-07-04 15:10:00,58.1,41.1,30.06,North,0,0.0,0.0,53,0.00,,---,0.00,VWS V14.01,2013-07-04 13:10:00,
2013-07-04 15:11:00,58.1,40.6,30.06,North,0,0.0,0.0,52,0.00,,---,0.00,VWS V14.01,2013-07-04 13:11:00,
2013-07-04 15:13:00,58.3,40.8,30.06,North,0,0.0,0.0,52,0.00,,---,0.00,VWS V14.01,2013-07-04 13:13:00,
2013-07-04 15:14:00,58.3,40.8,30.06,North,0,0.0,0.0,52,0.00,,---,0.00,VWS V14.01,2013-07-04 13:14:00,
2013-07-04 15:16:00,58.3,40.8,30.06,North,0,0.0,0.0,52,0.00,,---,0.00,VWS V14.01,2013-07-04 13:16:00,
2013-07-04 15:18:00,58.3,40.8,30.06,North,0,0.0,0.0,52,0.00,,---,0.00,VWS V14.01,2013-07-04 13:18:00,
2013-07-04 15:21:00,58.3,41.2,30.06,North,0,0.0,0.0,53,0.00,,---,0.00,VWS V14.01,2013-07-04 13:21:00,
2013-07-04 15:23:00,58.3,41.7,30.06,North,0,0.0,0.0,54,0.00,,---,0.00,VWS V14.01,2013-07-04 13:23:00,
2013-07-04 15:24:00,58.3,41.2,30.06,North,0,0.0,0.0,53,0.00,,---,0.00,VWS V14.01,2013-07-04 13:24:00,
2013-07-04 15:27:00,58.5,41.4,30.06,North,0,0.0,0.0,53,0.00,,---,0.00,VWS V14.01,2013-07-04 13:27:00,
2013-07-04 15:29:00,58.6,41.1,30.06,North,0,0.0,0.0,52,0.00,,---,0.00,VWS V14.01,2013-07-04 13:29:00,
2013-07-04 15:30:00,58.6,41.1,30.06,North,0,0.0,0.0,52,0.00,,---,0.00,VWS V14.01,2013-07-04 13:30:00,
2013-07-04 15:34:00,58.3,39.7,30.06,North,0,0.0,0.0,50,0.00,,---,0.00,VWS V14.01,2013-07-04 13:34:00,
2013-07-04 15:35:00,58.5,39.9,30.06,North,0,0.0,0.0,50,0.00,,---,0.00,VWS V14.01,2013-07-04 13:35:00,
2013-07-04 15:36:00,58.5,39.9,30.06,North,0,0.0,0.0,50,0.00,,---,0.00,VWS V14.01,2013-07-04 13:36:00,
2013-07-04 15:37:00,58.5,39.9,30.06,North,0,0.0,0.0,50,0.00,,---,0.00,VWS V14.01,2013-07-04 13:37:00,
2013-07-04 15:40:00,58.5,39.9,30.06,North,0,0.0,0.0,50,0.00,,---,0.00,VWS V14.01,2013-07-04 13:40:00,
2013-07-04 15:42:00,58.3,39.2,30.06,North,0,0.0,0.0,49,0.00,,---,0.00,VWS V14.01,2013-07-04 13:42:00,
2013-07-04 15:43:00,58.5,39.9,30.06,North,0,0.0,0.0,50,0.00,,---,0.00,VWS V14.01,2013-07-04 13:43:00,
2013-07-04 15:46:00,58.6,41.1,30.06,North,0,0.0,0.0,52,0.00,,---,0.00,VWS V14.01,2013-07-04 13:46:00,
2013-07-04 15:48:00,58.3,39.7,30.06,North,0,0.0,0.0,50,0.00,,---,0.00,VWS V14.01,2013-07-04 13:48:00,
2013-07-04 15:50:00,58.5,40.4,30.06,North,0,0.0,0.0,51,0.00,,---,0.00,VWS V14.01,2013-07-04 13:50:00,
2013-07-04 15:51:00,58.5,40.4,30.06,North,0,0.0,0.0,51,0.00,,---,0.00,VWS V14.01,2013-07-04 13:51:00,
2013-07-04 15:53:00,58.5,40.9,30.06,North,0,0.0,0.0,52,0.00,,---,0.00,VWS V14.01,2013-07-04 13:53:00,
2013-07-04 15:56:00,58.5,40.4,30.06,North,0,0.0,0.0,51,0.00,,---,0.00,VWS V14.01,2013-07-04 13:56:00,
2013-07-04 15:58:00,58.5,40.4,30.06,North,0,0.0,0.0,51,0.00,,---,0.00,VWS V14.01,2013-07-04 13:58:00,
2013-07-04 16:00:00,58.5,40.4,30.06,North,0,0.0,0.0,51,0.00,,---,0.00,VWS V14.01,2013-07-04 14:00:00,
2013-07-04 16:03:00,58.3,39.7,30.06,North,0,0.0,0.0,50,0.00,,---,0.00,VWS V14.01,2013-07-04 14:03:00,
2013-07-04 16:04:00,58.3,39.7,30.06,North,0,0.0,0.0,50,0.00,,---,0.00,VWS V14.01,2013-07-04 14:04:00,
2013-07-04 16:06:00,58.3,39.7,30.06,North,0,0.0,0.0,50,0.00,,---,0.00,VWS V14.01,2013-07-04 14:06:00,
2013-07-04 16:08:00,58.3,39.7,30.06,North,0,0.0,0.0,50,0.00,,---,0.00,VWS V14.01,2013-07-04 14:08:00,
2013-07-04 16:13:00,58.5,40.9,30.06,North,0,0.0,0.0,52,0.00,,---,0.00,VWS V14.01,2013-07-04 14:13:00,
2013-07-04 16:14:00,58.3,40.2,30.06,North,0,0.0,0.0,51,0.00,,---,0.00,VWS V14.01,2013-07-04 14:14:00,
2013-07-04 16:15:00,58.5,40.9,30.06,North,0,0.0,0.0,52,0.00,,---,0.00,VWS V14.01,2013-07-04 14:15:00,
2013-07-04 16:16:00,58.5,40.9,30.06,North,0,0.0,0.0,52,0.00,,---,0.00,VWS V14.01,2013-07-04 14:16:00,
2013-07-04 16:20:00,58.3,40.8,30.06,North,0,0.0,0.0,52,0.00,,---,0.00,VWS V14.01,2013-07-04 14:20:00,
2013-07-04 16:21:00,58.3,40.8,30.06,North,0,0.0,0.0,52,0.00,,---,0.00,VWS V14.01,2013-07-04 14:21:00,
2013-07-04 16:23:00,58.3,40.2,30.06,North,0,0.0,0.0,51,0.00,,---,0.00,VWS V14.01,2013-07-04 14:23:00,
2013-07-04 16:26:00,58.3,40.8,30.06,North,0,0.0,0.0,52,0.00,,---,0.00,VWS V14.01,2013-07-04 14:26:00,
2013-07-04 16:27:00,58.3,41.2,30.06,North,0,0.0,0.0,53,0.00,,---,0.00,VWS V14.01,2013-07-04 14:27:00,
2013-07-04 16:28:00,58.3,41.2,30.06,North,0,0.0,0.0,53,0.00,,---,0.00,VWS V14.01,2013-07-04 14:28:00,
2013-07-04 16:31:00,58.1,40.6,30.06,North,0,0.0,0.0,52,0.00,,---,0.00,VWS V14.01,2013-07-04 14:31:00,
2013-07-04 16:35:00,58.1,41.1,30.06,North,0,0.0,0.0,53,0.00,,---,0.00,VWS V14.01,2013-07-04 14:35:00,
2013-07-04 16:37:00,58.1,42.0,30.06,North,0,0.0,0.0,55,0.00,,---,0.00,VWS V14.01,2013-07-04 14:37:00,
2013-07-04 16:42:00,57.9,41.9,30.06,North,0,0.0,0.0,55,0.00,,---,0.00,VWS V14.01,2013-07-04 14:42:00,
2013-07-04 16:44:00,58.1,42.5,30.06,North,0,0.0,0.0,56,0.00,,---,0.00,VWS V14.01,2013-07-04 14:44:00,
2013-07-04 16:46:00,58.1,43.0,30.06,North,0,0.0,0.0,57,0.00,,---,0.00,VWS V14.01,2013-07-04 14:46:00,
2013-07-04 16:49:00,57.9,42.8,30.06,North,0,0.0,0.0,57,0.00,,---,0.00,VWS V14.01,2013-07-04 14:49:00,
2013-07-04 16:50:00,57.9,42.8,30.06,North,0,0.0,0.0,57,0.00,,---,0.00,VWS V14.01,2013-07-04 14:50:00,
2013-07-04 16:51:00,58.1,43.4,30.06,North,0,0.0,0.0,58,0.00,,---,0.00,VWS V14.01,2013-07-04 14:51:00,
2013-07-04 16:52:00,58.1,43.4,30.06,North,0,0.0,0.0,58,0.00,,---,0.00,VWS V14.01,2013-07-04 14:52:00,
2013-07-04 16:56:00,57.9,43.2,30.06,North,0,0.0,0.0,58,0.00,,---,0.00,VWS V14.01,2013-07-04 14:56:00,
2013-07-04 16:57:00,57.9,43.2,30.06,North,0,0.0,0.0,58,0.00,,---,0.00,VWS V14.01,2013-07-04 14:57:00,
2013-07-04 17:00:00,57.9,42.8,30.06,North,0,0.0,0.0,57,0.00,,---,0.00,VWS V14.01,2013-07-04 15:00:00,
2013-07-04 17:01:00,57.9,42.8,30.06,North,0,0.0,0.0,57,0.00,,---,0.00,VWS V14.01,2013-07-04 15:01:00,
2013-07-04 17:03:00,57.9,43.2,30.06,North,0,0.0,0.0,58,0.00,,---,0.00,VWS V14.01,2013-07-04 15:03:00,
2013-07-04 17:06:00,57.9,43.7,30.03,North,0,0.0,0.0,59,0.00,,---,0.00,VWS V14.01,2013-07-04 15:06:00,
2013-07-04 17:08:00,57.9,43.7,30.03,North,0,0.0,0.0,59,0.00,,---,0.00,VWS V14.01,2013-07-04 15:08:00,
2013-07-04 17:09:00,57.9,43.7,30.03,North,0,0.0,0.0,59,0.00,,---,0.00,VWS V14.01,2013-07-04 15:09:00,
2013-07-04 17:10:00,57.9,43.2,30.03,North,0,0.0,0.0,58,0.00,,---,0.00,VWS V14.01,2013-07-04 15:10:00,
2013-07-04 17:11:00,57.9,43.2,30.03,North,0,0.0,0.0,58,0.00,,---,0.00,VWS V14.01,2013-07-04 15:11:00,
2013-07-04 17:14:00,57.7,43.1,30.03,North,0,0.0,0.0,58,0.00,,---,0.00,VWS V14.01,2013-07-04 15:14:00,
2013-07-04 17:15:00,57.9,43.2,30.03,North,0,0.0,0.0,58,0.00,,---,0.00,VWS V14.01,2013-07-04 15:15:00,
2013-07-04 17:16:00,57.9,43.2,30.03,North,0,0.0,0.0,58,0.00,,---,0.00,VWS V14.01,2013-07-04 15:16:00,
2013-07-04 17:19:00,57.7,42.6,30.03,North,0,0.0,0.0,57,0.00,,---,0.00,VWS V14.01,2013-07-04 15:19:00,
2013-07-04 17:20:00,57.7,41.7,30.06,North,0,0.0,0.0,55,0.00,,---,0.00,VWS V14.01,2013-07-04 15:20:00,
2013-07-04 17:22:00,57.7,41.7,30.06,North,0,0.0,0.0,55,0.00,,---,0.00,VWS V14.01,2013-07-04 15:22:00,
2013-07-04 17:24:00,57.7,41.7,30.06,North,0,0.0,0.0,55,0.00,,---,0.00,VWS V14.01,2013-07-04 15:24:00,
2013-07-04 17:25:00,57.7,42.2,30.06,North,0,0.0,0.0,56,0.00,,---,0.00,VWS V14.01,2013-07-04 15:25:00,
2013-07-04 17:28:00,57.6,41.5,30.06,North,0,0.0,0.0,55,0.00,,---,0.00,VWS V14.01,2013-07-04 15:28:00,
2013-07-04 17:30:00,57.7,42.6,30.06,North,0,0.0,0.0,57,0.00,,---,0.00,VWS V14.01,2013-07-04 15:30:00,
2013-07-04 17:33:00,57.7,43.1,30.06,North,0,0.0,0.0,58,0.00,,---,0.00,VWS V14.01,2013-07-04 15:33:00,
2013-07-04 17:34:00,57.7,43.1,30.06,North,0,0.0,0.0,58,0.00,,---,0.00,VWS V14.01,2013-07-04 15:34:00,
2013-07-04 17:37:00,57.7,44.0,30.03,North,0,0.0,0.0,60,0.00,,---,0.00,VWS V14.01,2013-07-04 15:37:00,
2013-07-04 17:39:00,57.6,43.4,30.03,North,0,0.0,0.0,59,0.00,,---,0.00,VWS V14.01,2013-07-04 15:39:00,
2013-07-04 17:41:00,57.6,43.4,30.03,North,0,0.0,0.0,59,0.00,,---,0.00,VWS V14.01,2013-07-04 15:41:00,
2013-07-04 17:45:00,57.6,43.4,30.03,North,0,0.0,0.0,59,0.00,,---,0.00,VWS V14.01,2013-07-04 15:45:00,
2013-07-04 17:46:00,57.6,43.8,30.03,North,0,0.0,0.0,60,0.00,,---,0.00,VWS V14.01,2013-07-04 15:46:00,
2013-07-04 17:47:00,57.6,43.8,30.03,North,0,0.0,0.0,60,0.00,,---,0.00,VWS V14.01,2013-07-04 15:47:00,
2013-07-04 17:48:00,57.6,44.2,30.03,North,0,0.0,0.0,61,0.00,,---,0.00,VWS V14.01,2013-07-04 15:48:00,
2013-07-04 17:51:00,57.6,43.8,30.03,North,0,0.0,0.0,60,0.00,,---,0.00,VWS V14.01,2013-07-04 15:51:00,
2013-07-04 17:52:00,57.6,43.8,30.03,North,0,0.0,0.0,60,0.00,,---,0.00,VWS V14.01,2013-07-04 15:52:00,
2013-07-04 17:53:00,57.6,44.2,30.03,North,0,0.0,0.0,61,0.00,,---,0.00,VWS V14.01,2013-07-04 15:53:00,
2013-07-04 17:56:00,57.4,42.7,30.03,North,0,0.0,0.0,58,0.00,,---,0.00,VWS V14.01,2013-07-04 15:56:00,
2013-07-04 17:58:00,57.4,43.2,30.03,North,0,0.0,0.0,59,0.00,,---,0.00,VWS V14.01,2013-07-04 15:58:00,
2013-07-04 17:59:00,57.6,43.8,30.03,North,0,0.0,0.0,60,0.00,,---,0.00,VWS V14.01,2013-07-04 15:59:00,
2013-07-04 18:02:00,57.6,43.8,30.03,North,0,0.0,0.0,60,0.00,,---,0.00,VWS V14.01,2013-07-04 16:02:00,
2013-07-04 18:04:00,57.4,43.2,30.03,North,0,0.0,0.0,59,0.00,,---,0.00,VWS V14.01,2013-07-04 16:04:00,
2013-07-04 18:06:00,57.4,43.2,30.03,North,0,0.0,0.0,59,0.00,,---,0.00,VWS V14.01,2013-07-04 16:06:00,
2013-07-04 18:09:00,57.4,43.6,30.03,North,0,0.0,0.0,60,0.00,,---,0.00,VWS V14.01,2013-07-04 16:09:00,
2013-07-04 18:10:00,57.4,44.1,30.03,North,0,0.0,0.0,61,0.00,,---,0.00,VWS V14.01,2013-07-04 16:10:00,
2013-07-04 18:14:00,57.4,44.1,30.03,North,0,0.0,0.0,61,0.00,,---,0.00,VWS V14.01,2013-07-04 16:14:00,
2013-07-04 18:15:00,57.4,44.1,30.03,North,0,0.0,0.0,61,0.00,,---,0.00,VWS V14.01,2013-07-04 16:15:00,
2013-07-04 18:16:00,57.4,44.1,30.03,North,0,0.0,0.0,61,0.00,,---,0.00,VWS V14.01,2013-07-04 16:16:00,
2013-07-04 18:17:00,57.4,44.1,30.03,North,0,0.0,0.0,61,0.00,,---,0.00,VWS V14.01,2013-07-04 16:17:00,
2013-07-04 18:18:00,57.4,43.6,30.03,North,0,0.0,0.0,60,0.00,,---,0.00,VWS V14.01,2013-07-04 16:18:00,
2013-07-04 18:21:00,57.4,44.1,30.03,North,0,0.0,0.0,61,0.00,,---,0.00,VWS V14.01,2013-07-04 16:21:00,
2013-07-04 18:23:00,57.4,44.1,30.03,North,0,0.0,0.0,61,0.00,,---,0.00,VWS V14.01,2013-07-04 16:23:00,
2013-07-04 18:24:00,57.6,44.7,30.03,North,0,0.0,0.0,62,0.00,,---,0.00,VWS V14.01,2013-07-04 16:24:00,
2013-07-04 18:25:00,57.6,45.1,30.03,North,0,0.0,0.0,63,0.00,,---,0.00,VWS V14.01,2013-07-04 16:25:00,
2013-07-04 18:26:00,57.6,45.5,30.03,North,0,0.0,0.0,64,0.00,,---,0.00,VWS V14.01,2013-07-04 16:26:00,
2013-07-04 18:29:00,57.6,45.5,30.03,North,0,0.0,0.0,64,0.00,,---,0.00,VWS V14.01,2013-07-04 16:29:00,
2013-07-04 18:30:00,57.4,44.1,30.03,North,0,0.0,0.0,61,0.00,,---,0.00,VWS V14.01,2013-07-04 16:30:00,
2013-07-04 18:32:00,57.4,44.1,30.03,North,0,0.0,0.0,61,0.00,,---,0.00,VWS V14.01,2013-07-04 16:32:00,
2013-07-04 18:33:00,57.4,43.6,30.03,North,0,0.0,0.0,60,0.00,,---,0.00,VWS V14.01,2013-07-04 16:33:00,
2013-07-04 18:35:00,57.4,43.6,30.03,North,0,0.0,0.0,60,0.00,,---,0.00,VWS V14.01,2013-07-04 16:35:00,
2013-07-04 18:37:00,57.4,43.2,30.03,North,0,0.0,0.0,59,0.00,,---,0.00,VWS V14.01,2013-07-04 16:37:00,
2013-07-04 18:38:00,57.4,42.7,30.03,North,0,0.0,0.0,58,0.00,,---,0.00,VWS V14.01,2013-07-04 16:38:00,
2013-07-04 18:40:00,57.4,42.7,30.03,North,0,0.0,0.0,58,0.00,,---,0.00,VWS V14.01,2013-07-04 16:40:00,
2013-07-04 18:41:00,57.4,43.2,30.03,North,0,0.0,0.0,59,0.00,,---,0.00,VWS V14.01,2013-07-04 16:41:00,
2013-07-04 18:43:00,57.4,42.7,30.03,North,0,0.0,0.0,58,0.00,,---,0.00,VWS V14.01,2013-07-04 16:43:00,
2013-07-04 18:46:00,57.6,43.4,30.03,North,0,0.0,0.0,59,0.00,,---,0.00,VWS V14.01,2013-07-04 16:46:00,
2013-07-04 18:49:00,57.6,44.7,30.03,North,0,0.0,0.0,62,0.00,,---,0.00,VWS V14.01,2013-07-04 16:49:00,
2013-07-04 18:50:00,57.7,45.7,30.03,North,0,0.0,0.0,64,0.00,,---,0.00,VWS V14.01,2013-07-04 16:50:00,
2013-07-04 18:51:00,57.7,45.7,30.03,North,0,0.0,0.0,64,0.00,,---,0.00,VWS V14.01,2013-07-04 16:51:00,
2013-07-04 18:54:00,57.7,45.7,30.03,North,0,0.0,0.0,64,0.00,,---,0.00,VWS V14.01,2013-07-04 16:54:00,
2013-07-04 18:55:00,57.6,45.5,30.03,North,0,0.0,0.0,64,0.00,,---,0.00,VWS V14.01,2013-07-04 16:55:00,
2013-07-04 18:58:00,57.6,45.1,30.03,North,0,0.0,0.0,63,0.00,,---,0.00,VWS V14.01,2013-07-04 16:58:00,
2013-07-04 18:59:00,57.6,45.1,30.03,North,0,0.0,0.0,63,0.00,,---,0.00,VWS V14.01,2013-07-04 16:59:00,
2013-07-04 19:01:00,57.6,45.1,30.03,North,0,0.0,0.0,63,0.00,,---,0.00,VWS V14.01,2013-07-04 17:01:00,
2013-07-04 19:02:00,57.6,45.9,30.03,North,0,0.0,0.0,65,0.00,,---,0.00,VWS V14.01,2013-07-04 17:02:00,
2013-07-04 19:03:00,57.6,45.5,30.03,North,0,0.0,0.0,64,0.00,,---,0.00,VWS V14.01,2013-07-04 17:03:00,
2013-07-04 19:08:00,57.6,45.5,30.03,North,0,0.0,0.0,64,0.00,,---,0.00,VWS V14.01,2013-07-04 17:08:00,
2013-07-04 19:09:00,57.6,45.1,30.03,North,0,0.0,0.0,63,0.00,,---,0.00,VWS V14.01,2013-07-04 17:09:00,
2013-07-04 19:12:00,57.7,45.7,30.03,North,0,0.0,0.0,64,0.00,,---,0.00,VWS V14.01,2013-07-04 17:12:00,
2013-07-04 19:14:00,57.7,46.1,30.03,North,0,0.0,0.0,65,0.00,,---,0.00,VWS V14.01,2013-07-04 17:14:00,
2013-07-04 19:17:00,57.7,46.1,30.03,North,0,0.0,0.0,65,0.00,,---,0.00,VWS V14.01,2013-07-04 17:17:00,
2013-07-04 19:18:00,57.7,46.1,30.03,North,0,0.0,0.0,65,0.00,,---,0.00,VWS V14.01,2013-07-04 17:18:00,
2013-07-04 19:19:00,57.7,46.5,30.03,North,0,0.0,0.0,66,0.00,,---,0.00,VWS V14.01,2013-07-04 17:19:00,
2013-07-04 19:20:00,57.7,46.5,30.03,North,0,0.0,0.0,66,0.00,,---,0.00,VWS V14.01,2013-07-04 17:20:00,
2013-07-04 19:22:00,57.7,46.9,30.03,North,0,0.0,0.0,67,0.00,,---,0.00,VWS V14.01,2013-07-04 17:22:00,
2013-07-04 19:24:00,57.9,47.0,30.03,North,0,0.0,0.0,67,0.00,,---,0.00,VWS V14.01,2013-07-04 17:24:00,
2013-07-04 19:25:00,57.9,47.4,30.03,North,0,0.0,0.0,68,0.00,,---,0.00,VWS V14.01,2013-07-04 17:25:00,
2013-07-04 19:26:00,57.9,47.4,30.03,North,0,0.0,0.0,68,0.00,,---,0.00,VWS V14.01,2013-07-04 17:26:00,
2013-07-04 19:27:00,57.9,47.4,30.03,North,0,0.0,0.0,68,0.00,,---,0.00,VWS V14.01,2013-07-04 17:27:00,
2013-07-04 19:30:00,57.7,46.9,30.03,North,0,0.0,0.0,67,0.00,,---,0.00,VWS V14.01,2013-07-04 17:30:00,
2013-07-04 19:34:00,57.7,46.9,30.03,North,0,0.0,0.0,67,0.00,,---,0.00,VWS V14.01,2013-07-04 17:34:00,
2013-07-04 19:35:00,57.6,45.9,30.03,North,0,0.0,0.0,65,0.00,,---,0.00,VWS V14.01,2013-07-04 17:35:00,
2013-07-04 19:36:00,57.6,45.9,30.03,North,0,0.0,0.0,65,0.00,,---,0.00,VWS V14.01,2013-07-04 17:36:00,
2013-07-04 19:37:00,57.6,45.5,30.03,North,0,0.0,0.0,64,0.00,,---,0.00,VWS V14.01,2013-07-04 17:37:00,
2013-07-04 19:41:00,57.7,46.5,30.03,North,0,0.0,0.0,66,0.00,,---,0.00,VWS V14.01,2013-07-04 17:41:00,
2013-07-04 19:42:00,57.7,46.5,30.03,North,0,0.0,0.0,66,0.00,,---,0.00,VWS V14.01,2013-07-04 17:42:00,
2013-07-04 19:44:00,57.6,46.3,30.03,North,0,0.0,0.0,66,0.00,,---,0.00,VWS V14.01,2013-07-04 17:44:00,
2013-07-04 19:47:00,57.6,46.3,30.03,North,0,0.0,0.0,66,0.00,,---,0.00,VWS V14.01,2013-07-04 17:47:00,
2013-07-04 19:48:00,57.6,46.3,30.03,North,0,0.0,0.0,66,0.00,,---,0.00,VWS V14.01,2013-07-04 17:48:00,
2013-07-04 19:49:00,57.6,45.9,30.03,North,0,0.0,0.0,65,0.00,,---,0.00,VWS V14.01,2013-07-04 17:49:00,
2013-07-04 19:50:00,57.6,45.9,30.03,North,0,0.0,0.0,65,0.00,,---,0.00,VWS V14.01,2013-07-04 17:50:00,
2013-07-04 19:53:00,57.6,46.3,30.03,North,0,0.0,0.0,66,0.00,,---,0.00,VWS V14.01,2013-07-04 17:53:00,
2013-07-04 19:54:00,57.6,46.3,30.03,North,0,0.0,0.0,66,0.00,,---,0.00,VWS V14.01,2013-07-04 17:54:00,
2013-07-04 19:57:00,57.6,46.3,30.03,North,0,0.0,0.0,66,0.00,,---,0.00,VWS V14.01,2013-07-04 17:57:00,
2013-07-04 19:58:00,57.6,46.3,30.03,North,0,0.0,0.0,66,0.00,,---,0.00,VWS V14.01,2013-07-04 17:58:00,
2013-07-04 19:59:00,57.6,46.3,30.03,North,0,0.0,0.0,66,0.00,,---,0.00,VWS V14.01,2013-07-04 17:59:00,
2013-07-04 20:01:00,57.6,46.3,30.03,North,0,0.0,0.0,66,0.00,,---,0.00,VWS V14.01,2013-07-04 18:01:00,
2013-07-04 20:03:00,57.7,46.9,30.03,North,0,0.0,0.0,67,0.00,,---,0.00,VWS V14.01,2013-07-04 18:03:00,
2013-07-04 20:06:00,57.6,46.3,30.00,North,0,0.0,0.0,66,0.00,,---,0.00,VWS V14.01,2013-07-04 18:06:00,
2013-07-04 20:07:00,57.6,45.9,30.00,North,0,0.0,0.0,65,0.00,,---,0.00,VWS V14.01,2013-07-04 18:07:00,
2013-07-04 20:09:00,57.6,45.9,30.00,North,0,0.0,0.0,65,0.00,,---,0.00,VWS V14.01,2013-07-04 18:09:00,
2013-07-04 20:12:00,57.7,46.1,30.00,North,0,0.0,0.0,65,0.00,,---,0.00,VWS V14.01,2013-07-04 18:12:00,
2013-07-04 20:13:00,57.7,46.1,30.00,North,0,0.0,0.0,65,0.00,,---,0.00,VWS V14.01,2013-07-04 18:13:00,
2013-07-04 20:16:00,57.7,46.1,30.00,North,0,0.0,0.0,65,0.00,,---,0.00,VWS V14.01,2013-07-04 18:16:00,
2013-07-04 20:17:00,57.9,46.6,30.00,North,0,0.0,0.0,66,0.00,,---,0.00,VWS V14.01,2013-07-04 18:17:00,
2013-07-04 20:20:00,57.7,45.7,30.00,North,0,0.0,0.0,64,0.00,,---,0.00,VWS V14.01,2013-07-04 18:20:00,
2013-07-04 20:21:00,57.7,45.2,30.00,North,0,0.0,0.0,63,0.00,,---,0.00,VWS V14.01,2013-07-04 18:21:00,
2013-07-04 20:23:00,57.7,45.2,30.00,North,0,0.0,0.0,63,0.00,,---,0.00,VWS V14.01,2013-07-04 18:23:00,
2013-07-04 20:26:00,57.7,44.8,30.00,North,0,0.0,0.0,62,0.00,,---,0.00,VWS V14.01,2013-07-04 18:26:00,
2013-07-04 20:27:00,57.7,45.2,30.00,North,0,0.0,0.0,63,0.00,,---,0.00,VWS V14.01,2013-07-04 18:27:00,
2013-07-04 20:28:00,57.7,45.2,30.00,North,0,0.0,0.0,63,0.00,,---,0.00,VWS V14.01,2013-07-04 18:28:00,
2013-07-04 20:30:00,57.7,45.7,30.00,North,0,0.0,0.0,64,0.00,,---,0.00,VWS V14.01,2013-07-04 18:30:00,
2013-07-04 20:33:00,57.7,45.7,30.00,North,0,0.0,0.0,64,0.00,,---,0.00,VWS V14.01,2013-07-04 18:33:00,
2013-07-04 20:35:00,57.7,45.7,30.00,North,0,0.0,0.0,64,0.00,,---,0.00,VWS V14.01,2013-07-04 18:35:00,
2013-07-04 20:36:00,57.7,45.2,30.00,North,0,0.0,0.0,63,0.00,,---,0.00,VWS V14.01,2013-07-04 18:36:00,
2013-07-04 20:38:00,57.7,45.7,30.00,North,0,0.0,0.0,64,0.00,,---,0.00,VWS V14.01,2013-07-04 18:38:00,
2013-07-04 20:42:00,57.9,47.0,30.00,North,0,0.0,0.0,67,0.00,,---,0.00,VWS V14.01,2013-07-04 18:42:00,
2013-07-04 20:43:00,57.9,47.0,30.00,North,0,0.0,0.0,67,0.00,,---,0.00,VWS V14.01,2013-07-04 18:43:00,
2013-07-04 20:44:00,57.9,47.0,30.00,North,0,0.0,0.0,67,0.00,,---,0.00,VWS V14.01,2013-07-04 18:44:00,
2013-07-04 20:45:00,57.9,47.0,30.00,North,0,0.0,0.0,67,0.00,,---,0.00,VWS V14.01,2013-07-04 18:45:00,
2013-07-04 20:49:00,57.7,46.5,30.00,North,0,0.0,0.0,66,0.00,,---,0.00,VWS V14.01,2013-07-04 18:49:00,
2013-07-04 20:51:00,57.9,46.6,30.00,North,0,0.0,0.0,66,0.00,,---,0.00,VWS V14.01,2013-07-04 18:51:00,
2013-07-04 20:53:00,57.9,47.0,30.00,North,0,0.0,0.0,67,0.00,,---,0.00,VWS V14.01,2013-07-04 18:53:00,
2013-07-04 20:54:00,57.9,47.0,30.00,North,0,0.0,0.0,67,0.00,,---,0.00,VWS V14.01,2013-07-04 18:54:00,
2013-07-04 20:56:00,57.9,47.4,30.00,North,0,0.0,0.0,68,0.00,,---,0.00,VWS V14.01,2013-07-04 18:56:00,
2013-07-04 20:58:00,58.1,48.0,30.00,North,0,0.0,0.0,69,0.00,,---,0.00,VWS V14.01,2013-07-04 18:58:00,
2013-07-04 20:59:00,58.1,48.0,30.00,North,0,0.0,0.0,69,0.00,,---,0.00,VWS V14.01,2013-07-04 18:59:00,
2013-07-04 21:03:00,57.9,47.8,30.00,North,0,0.0,0.0,69,0.00,,---,0.00,VWS V14.01,2013-07-04 19:03:00,
2013-07-04 21:04:00,57.9,47.4,30.00,North,0,0.0,0.0,68,0.00,,---,0.00,VWS V14.01,2013-07-04 19:04:00,
2013-07-04 21:06:00,57.9,47.0,30.00,North,0,0.0,0.0,67,0.00,,---,0.00,VWS V14.01,2013-07-04 19:06:00,
2013-07-04 21:10:00,57.9,46.6,30.00,North,0,0.0,0.0,66,0.00,,---,0.00,VWS V14.01,2013-07-04 19:10:00,
2013-07-04 21:12:00,58.1,47.2,30.00,North,0,0.0,0.0,67,0.00,,---,0.00,VWS V14.01,2013-07-04 19:12:00,
2013-07-04 21:15:00,58.1,47.6,30.00,North,0,0.0,0.0,68,0.00,,---,0.00,VWS V14.01,2013-07-04 19:15:00,
2013-07-04 21:19:00,58.1,47.6,30.00,North,0,0.0,0.0,68,0.00,,---,0.00,VWS V14.01,2013-07-04 19:19:00,
2013-07-04 21:20:00,58.1,47.2,30.00,North,0,0.0,0.0,67,0.00,,---,0.00,VWS V14.01,2013-07-04 19:20:00,
2013-07-04 21:21:00,58.1,47.2,30.00,North,0,0.0,0.0,67,0.00,,---,0.00,VWS V14.01,2013-07-04 19:21:00,
2013-07-04 21:23:00,58.1,47.2,30.00,North,0,0.0,0.0,67,0.00,,---,0.00,VWS V14.01,2013-07-04 19:23:00,
2013-07-04 21:24:00,58.1,47.2,30.00,North,0,0.0,0.0,67,0.00,,---,0.00,VWS V14.01,2013-07-04 19:24:00,
2013-07-04 21:25:00,58.1,47.2,30.00,North,0,0.0,0.0,67,0.00,,---,0.00,VWS V14.01,2013-07-04 19:25:00,
2013-07-04 21:28:00,58.1,47.2,30.00,North,0,0.0,0.0,67,0.00,,---,0.00,VWS V14.01,2013-07-04 19:28:00,
2013-07-04 21:29:00,58.1,47.2,30.00,North,0,0.0,0.0,67,0.00,,---,0.00,VWS V14.01,2013-07-04 19:29:00,
2013-07-04 21:30:00,58.1,47.2,30.00,North,0,0.0,0.0,67,0.00,,---,0.00,VWS V14.01,2013-07-04 19:30:00,
2013-07-04 21:31:00,58.1,47.2,30.00,North,0,0.0,0.0,67,0.00,,---,0.00,VWS V14.01,2013-07-04 19:31:00,
2013-07-04 21:32:00,58.1,47.2,30.00,North,0,0.0,0.0,67,0.00,,---,0.00,VWS V14.01,2013-07-04 19:32:00,
2013-07-04 21:35:00,58.1,47.2,30.00,North,0,0.0,0.0,67,0.00,,---,0.00,VWS V14.01,2013-07-04 19:35:00,
2013-07-04 21:40:00,58.1,48.0,30.00,North,0,0.0,0.0,69,0.00,,---,0.00,VWS V14.01,2013-07-04 19:40:00,
2013-07-04 21:41:00,58.1,48.0,30.00,North,0,0.0,0.0,69,0.00,,---,0.00,VWS V14.01,2013-07-04 19:41:00,
2013-07-04 21:43:00,58.1,48.0,30.00,North,0,0.0,0.0,69,0.00,,---,0.00,VWS V14.01,2013-07-04 19:43:00,
2013-07-04 21:44:00,58.1,47.6,30.00,North,0,0.0,0.0,68,0.00,,---,0.00,VWS V14.01,2013-07-04 19:44:00,
2013-07-04 21:45:00,58.1,48.0,30.00,North,0,0.0,0.0,69,0.00,,---,0.00,VWS V14.01,2013-07-04 19:45:00,
2013-07-04 21:46:00,58.1,48.0,30.00,North,0,0.0,0.0,69,0.00,,---,0.00,VWS V14.01,2013-07-04 19:46:00,
2013-07-04 21:50:00,58.1,48.0,30.00,North,0,0.0,0.0,69,0.00,,---,0.00,VWS V14.01,2013-07-04 19:50:00,
2013-07-04 21:51:00,58.1,48.0,30.00,North,0,0.0,0.0,69,0.00,,---,0.00,VWS V14.01,2013-07-04 19:51:00,
2013-07-04 21:52:00,58.1,47.6,30.00,North,0,0.0,0.0,68,0.00,,---,0.00,VWS V14.01,2013-07-04 19:52:00,
2013-07-04 21:55:00,58.1,47.6,30.00,North,0,0.0,0.0,68,0.00,,---,0.00,VWS V14.01,2013-07-04 19:55:00,
2013-07-04 21:58:00,58.1,48.0,30.00,North,0,0.0,0.0,69,0.00,,---,0.00,VWS V14.01,2013-07-04 19:58:00,
2013-07-04 22:00:00,58.1,48.0,30.00,North,0,0.0,0.0,69,0.00,,---,0.00,VWS V14.01,2013-07-04 20:00:00,
2013-07-04 22:02:00,58.1,48.4,30.00,North,0,0.0,0.0,70,0.00,,---,0.00,VWS V14.01,2013-07-04 20:02:00,
2013-07-04 22:05:00,57.9,47.4,30.00,North,0,0.0,0.0,68,0.00,,---,0.00,VWS V14.01,2013-07-04 20:05:00,
2013-07-04 22:06:00,57.9,47.4,30.00,North,0,0.0,0.0,68,0.00,,---,0.00,VWS V14.01,2013-07-04 20:06:00,
2013-07-04 22:07:00,57.9,47.4,30.00,North,0,0.0,0.0,68,0.00,,---,0.00,VWS V14.01,2013-07-04 20:07:00,
2013-07-04 22:09:00,57.9,47.4,30.00,North,0,0.0,0.0,68,0.00,,---,0.00,VWS V14.01,2013-07-04 20:09:00,
2013-07-04 22:10:00,57.9,47.4,30.00,North,0,0.0,0.0,68,0.00,,---,0.00,VWS V14.01,2013-07-04 20:10:00,
2013-07-04 22:11:00,57.9,47.8,30.00,North,0,0.0,0.0,69,0.00,,---,0.00,VWS V14.01,2013-07-04 20:11:00,
2013-07-04 22:14:00,57.9,47.8,30.00,North,0,0.0,0.0,69,0.00,,---,0.00,VWS V14.01,2013-07-04 20:14:00,
2013-07-04 22:16:00,57.9,47.8,30.00,North,0,0.0,0.0,69,0.00,,---,0.00,VWS V14.01,2013-07-04 20:16:00,
2013-07-04 22:18:00,57.9,47.8,30.00,North,0,0.0,0.0,69,0.00,,---,0.00,VWS V14.01,2013-07-04 20:18:00,
2013-07-04 22:20:00,57.9,47.4,29.97,North,0,0.0,0.0,68,0.00,,---,0.00,VWS V14.01,2013-07-04 20:20:00,
2013-07-04 22:21:00,57.9,47.4,29.97,North,0,0.0,0.0,68,0.00,,---,0.00,VWS V14.01,2013-07-04 20:21:00,
2013-07-04 22:23:00,57.9,47.4,29.97,North,0,0.0,0.0,68,0.00,,---,0.00,VWS V14.01,2013-07-04 20:23:00,
2013-07-04 22:24:00,57.9,47.8,29.97,North,0,0.0,0.0,69,0.00,,---,0.00,VWS V14.01,2013-07-04 20:24:00,
2013-07-04 22:25:00,57.9,47.8,29.97,North,0,0.0,0.0,69,0.00,,---,0.00,VWS V14.01,2013-07-04 20:25:00,
2013-07-04 22:28:00,57.9,48.2,29.97,North,0,0.0,0.0,70,0.00,,---,0.00,VWS V14.01,2013-07-04 20:28:00,
2013-07-04 22:31:00,57.9,48.2,29.97,North,0,0.0,0.0,70,0.00,,---,0.00,VWS V14.01,2013-07-04 20:31:00,
2013-07-04 22:32:00,57.9,48.2,29.97,North,0,0.0,0.0,70,0.00,,---,0.00,VWS V14.01,2013-07-04 20:32:00,
2013-07-04 22:34:00,57.7,47.7,29.97,North,0,0.0,0.0,69,0.00,,---,0.00,VWS V14.01,2013-07-04 20:34:00,
2013-07-04 22:35:00,57.9,48.2,29.97,North,0,0.0,0.0,70,0.00,,---,0.00,VWS V14.01,2013-07-04 20:35:00,
2013-07-04 22:37:00,57.9,48.2,29.97,North,0,0.0,0.0,70,0.00,,---,0.00,VWS V14.01,2013-07-04 20:37:00,
2013-07-04 22:38:00,57.9,48.2,29.97,North,0,0.0,0.0,70,0.00,,---,0.00,VWS V14.01,2013-07-04 20:38:00,
2013-07-04 22:39:00,57.9,48.2,29.97,North,0,0.0,0.0,70,0.00,,---,0.00,VWS V14.01,2013-07-04 20:39:00,
2013-07-04 22:40:00,57.9,48.2,29.97,North,0,0.0,0.0,70,0.00,,---,0.00,VWS V14.01,2013-07-04 20:40:00,
2013-07-04 22:43:00,57.9,48.6,29.97,North,0,0.0,0.0,71,0.00,,---,0.00,VWS V14.01,2013-07-04 20:43:00,
2013-07-04 22:44:00,57.9,48.6,29.97,North,0,0.0,0.0,71,0.00,,---,0.00,VWS V14.01,2013-07-04 20:44:00,
2013-07-04 22:47:00,57.9,48.6,29.97,North,0,0.0,0.0,71,0.00,,---,0.00,VWS V14.01,2013-07-04 20:47:00,
2013-07-04 22:49:00,57.9,48.6,29.97,North,0,0.0,0.0,71,0.00,,---,0.00,VWS V14.01,2013-07-04 20:49:00,
2013-07-04 22:50:00,57.9,48.6,29.97,North,0,0.0,0.0,71,0.00,,---,0.00,VWS V14.01,2013-07-04 20:50:00,
2013-07-04 22:53:00,57.9,48.6,29.97,North,0,0.0,0.0,71,0.00,,---,0.00,VWS V14.01,2013-07-04 20:53:00,
2013-07-04 22:55:00,57.9,48.6,29.97,North,0,0.0,0.0,71,0.00,,---,0.00,VWS V14.01,2013-07-04 20:55:00,
2013-07-04 22:56:00,57.9,49.0,29.97,North,0,0.0,0.0,72,0.00,,---,0.00,VWS V14.01,2013-07-04 20:56:00,
2013-07-04 22:58:00,57.9,49.0,29.97,North,0,0.0,0.0,72,0.00,,---,0.00,VWS V14.01,2013-07-04 20:58:00,
2013-07-04 22:59:00,57.9,49.0,29.97,North,0,0.0,0.0,72,0.00,,---,0.00,VWS V14.01,2013-07-04 20:59:00,
2013-07-04 23:01:00,57.9,49.0,29.97,North,0,0.0,0.0,72,0.00,,---,0.00,VWS V14.01,2013-07-04 21:01:00,
2013-07-04 23:04:00,57.9,49.0,29.97,North,0,0.0,0.0,72,0.00,,---,0.00,VWS V14.01,2013-07-04 21:04:00,
2013-07-04 23:06:00,57.9,49.3,29.97,North,0,0.0,0.0,73,0.00,,---,0.00,VWS V14.01,2013-07-04 21:06:00,
2013-07-04 23:07:00,57.9,49.3,29.97,North,0,0.0,0.0,73,0.00,,---,0.00,VWS V14.01,2013-07-04 21:07:00,
2013-07-04 23:11:00,57.9,49.3,29.97,North,0,0.0,0.0,73,0.00,,---,0.00,VWS V14.01,2013-07-04 21:11:00,
2013-07-04 23:12:00,57.9,49.3,29.97,North,0,0.0,0.0,73,0.00,,---,0.00,VWS V14.01,2013-07-04 21:12:00,
2013-07-04 23:13:00,57.9,49.3,29.97,North,0,0.0,0.0,73,0.00,,---,0.00,VWS V14.01,2013-07-04 21:13:00,
2013-07-04 23:16:00,57.9,49.3,29.97,North,0,0.0,0.0,73,0.00,,---,0.00,VWS V14.01,2013-07-04 21:16:00,
2013-07-04 23:18:00,57.9,49.3,29.97,North,0,0.0,0.0,73,0.00,,---,0.00,VWS V14.01,2013-07-04 21:18:00,
2013-07-04 23:20:00,57.9,49.3,29.97,North,0,0.0,0.0,73,0.00,,---,0.00,VWS V14.01,2013-07-04 21:20:00,
2013-07-04 23:22:00,57.9,48.6,29.97,North,0,0.0,0.0,71,0.00,,---,0.00,VWS V14.01,2013-07-04 21:22:00,
2013-07-04 23:24:00,57.9,48.6,29.97,North,0,0.0,0.0,71,0.00,,---,0.00,VWS V14.01,2013-07-04 21:24:00,
2013-07-04 23:25:00,57.9,48.6,29.97,North,0,0.0,0.0,71,0.00,,---,0.00,VWS V14.01,2013-07-04 21:25:00,
2013-07-04 23:28:00,57.9,48.6,29.97,North,0,0.0,0.0,71,0.00,,---,0.00,VWS V14.01,2013-07-04 21:28:00,
2013-07-04 23:30:00,57.9,48.6,29.97,North,0,0.0,0.0,71,0.00,,---,0.00,VWS V14.01,2013-07-04 21:30:00,
2013-07-04 23:31:00,57.9,48.6,29.97,North,0,0.0,0.0,71,0.00,,---,0.00,VWS V14.01,2013-07-04 21:31:00,
2013-07-04 23:33:00,57.9,49.0,29.97,North,0,0.0,0.0,72,0.00,,---,0.00,VWS V14.01,2013-07-04 21:33:00,
2013-07-04 23:36:00,57.9,48.6,29.94,North,0,0.0,0.0,71,0.00,,---,0.00,VWS V14.01,2013-07-04 21:36:00,
2013-07-04 23:37:00,57.9,48.6,29.94,North,0,0.0,0.0,71,0.00,,---,0.00,VWS V14.01,2013-07-04 21:37:00,
2013-07-04 23:39:00,57.9,49.0,29.94,North,0,0.0,0.0,72,0.00,,---,0.00,VWS V14.01,2013-07-04 21:39:00,
2013-07-04 23:41:00,57.9,49.3,29.94,North,0,0.0,0.0,73,0.00,,---,0.00,VWS V14.01,2013-07-04 21:41:00,
2013-07-04 23:44:00,57.9,49.0,29.94,North,0,0.0,0.0,72,0.00,,---,0.00,VWS V14.01,2013-07-04 21:44:00,
2013-07-04 23:45:00,57.9,49.0,29.94,North,0,0.0,0.0,72,0.00,,---,0.00,VWS V14.01,2013-07-04 21:45:00,
2013-07-04 23:46:00,58.1,49.1,29.94,North,0,0.0,0.0,72,0.00,,---,0.00,VWS V14.01,2013-07-04 21:46:00,
2013-07-04 23:47:00,58.1,49.1,29.94,North,0,0.0,0.0,72,0.00,,---,0.00,VWS V14.01,2013-07-04 21:47:00,
2013-07-04 23:50:00,58.1,49.1,29.94,North,0,0.0,0.0,72,0.00,,---,0.00,VWS V14.01,2013-07-04 21:50:00,
2013-07-04 23:52:00,58.1,49.1,29.94,North,0,0.0,0.0,72,0.00,,---,0.00,VWS V14.01,2013-07-04 21:52:00,
2013-07-04 23:55:00,58.1,49.1,29.94,North,0,0.0,0.0,72,0.00,,---,0.00,VWS V14.01,2013-07-04 21:55:00,
2013-07-04 23:56:00,58.1,49.1,29.94,North,0,0.0,0.0,72,0.00,,---,0.00,VWS V14.01,2013-07-04 21:56:00,
2013-07-04 23:57:00,58.1,49.1,29.94,North,0,0.0,0.0,72,0.00,,---,0.00,VWS V14.01,2013-07-04 21:57:00,
2013-07-04 23:58:00,58.3,49.7,29.94,North,0,0.0,0.0,73,0.00,,---,0.00,VWS V14.01,2013-07-04 21:58:00,